sensor_id;sensor_type;location;lat;lon;timestamp;temperature;humidity
4763;DHT22;2395;50.738;7.122;2022-08-01T00:00:27;22.20;99.90
4763;DHT22;2395;50.738;7.122;2022-08-01T00:02:55;22.20;99.90
4763;DHT22;2395;50.738;7.122;2022-08-01T00:05:30;22.20;99.90
4763;DHT22;2395;50.738;7.122;2022-08-01T00:08:09;22.20;99.90
4763;DHT22;2395;50.738;7.122;2022-08-01T00:10:41;22.20;99.90
4763;DHT22;2395;50.738;7.122;2022-08-01T00:13:14;22.20;99.90
4763;DHT22;2395;50.738;7.122;2022-08-01T00:15:51;22.20;99.90
4763;DHT22;2395;50.738;7.122;2022-08-01T00:18:19;22.30;99.90
4763;DHT22;2395;50.738;7.122;2022-08-01T00:20:51;22.30;99.90
4763;DHT22;2395;50.738;7.122;2022-08-01T00:23:23;22.20;99.90
4763;DHT22;2395;50.738;7.122;2022-08-01T00:25:54;22.20;99.90
4763;DHT22;2395;50.738;7.122;2022-08-01T00:28:28;22.20;99.90
4763;DHT22;2395;50.738;7.122;2022-08-01T00:30:59;22.10;99.90
4763;DHT22;2395;50.738;7.122;2022-08-01T00:33:33;22.10;99.90
4763;DHT22;2395;50.738;7.122;2022-08-01T00:36:19;22.10;99.90
4763;DHT22;2395;50.738;7.122;2022-08-01T00:38:51;22.00;99.90
4763;DHT22;2395;50.738;7.122;2022-08-01T00:41:26;22.00;99.90
4763;DHT22;2395;50.738;7.122;2022-08-01T00:43:55;22.00;99.90
4763;DHT22;2395;50.738;7.122;2022-08-01T00:46:25;22.00;99.90
4763;DHT22;2395;50.738;7.122;2022-08-01T00:48:57;22.10;99.90
4763;DHT22;2395;50.738;7.122;2022-08-01T00:51:35;22.00;99.90
4763;DHT22;2395;50.738;7.122;2022-08-01T00:54:07;22.10;99.90
4763;DHT22;2395;50.738;7.122;2022-08-01T00:56:37;22.00;99.90
4763;DHT22;2395;50.738;7.122;2022-08-01T00:59:08;22.00;99.90
4763;DHT22;2395;50.738;7.122;2022-08-01T01:01:38;22.10;99.90
4763;DHT22;2395;50.738;7.122;2022-08-01T01:04:08;22.00;99.90
4763;DHT22;2395;50.738;7.122;2022-08-01T01:06:51;21.90;99.90
4763;DHT22;2395;50.738;7.122;2022-08-01T01:09:42;21.90;99.90
4763;DHT22;2395;50.738;7.122;2022-08-01T01:12:27;21.90;99.90
4763;DHT22;2395;50.738;7.122;2022-08-01T01:15:06;21.90;99.90
4763;DHT22;2395;50.738;7.122;2022-08-01T01:17:48;21.80;99.90
4763;DHT22;2395;50.738;7.122;2022-08-01T01:20:26;21.80;99.90
4763;DHT22;2395;50.738;7.122;2022-08-01T01:23:15;21.80;99.90
4763;DHT22;2395;50.738;7.122;2022-08-01T01:26:20;21.80;99.90
4763;DHT22;2395;50.738;7.122;2022-08-01T01:29:06;21.70;99.90
4763;DHT22;2395;50.738;7.122;2022-08-01T01:34:52;21.60;99.90
4763;DHT22;2395;50.738;7.122;2022-08-01T01:37:30;21.60;99.90
4763;DHT22;2395;50.738;7.122;2022-08-01T01:40:04;21.60;99.90
4763;DHT22;2395;50.738;7.122;2022-08-01T01:42:38;21.60;99.90
4763;DHT22;2395;50.738;7.122;2022-08-01T01:45:14;21.50;99.90
4763;DHT22;2395;50.738;7.122;2022-08-01T01:47:55;21.50;99.90
4763;DHT22;2395;50.738;7.122;2022-08-01T01:50:28;21.50;99.90
4763;DHT22;2395;50.738;7.122;2022-08-01T01:53:03;21.50;99.90
4763;DHT22;2395;50.738;7.122;2022-08-01T01:55:39;21.50;99.90
4763;DHT22;2395;50.738;7.122;2022-08-01T01:58:16;21.50;99.90
4763;DHT22;2395;50.738;7.122;2022-08-01T02:01:16;21.50;99.90
4763;DHT22;2395;50.738;7.122;2022-08-01T02:03:55;21.40;99.90
4763;DHT22;2395;50.738;7.122;2022-08-01T02:06:27;21.40;99.90
4763;DHT22;2395;50.738;7.122;2022-08-01T02:09:06;21.30;99.90
4763;DHT22;2395;50.738;7.122;2022-08-01T02:11:47;21.40;99.90
4763;DHT22;2395;50.738;7.122;2022-08-01T02:14:24;21.40;99.90
4763;DHT22;2395;50.738;7.122;2022-08-01T02:17:06;21.30;99.90
4763;DHT22;2395;50.738;7.122;2022-08-01T02:19:44;21.30;99.90
4763;DHT22;2395;50.738;7.122;2022-08-01T02:22:27;21.30;99.90
4763;DHT22;2395;50.738;7.122;2022-08-01T02:25:13;21.30;99.90
4763;DHT22;2395;50.738;7.122;2022-08-01T02:28:07;21.30;99.90
4763;DHT22;2395;50.738;7.122;2022-08-01T02:31:04;21.20;99.90
4763;DHT22;2395;50.738;7.122;2022-08-01T02:34:00;21.20;99.90
4763;DHT22;2395;50.738;7.122;2022-08-01T02:36:35;21.20;99.90
4763;DHT22;2395;50.738;7.122;2022-08-01T02:39:12;21.20;99.90
4763;DHT22;2395;50.738;7.122;2022-08-01T02:41:58;21.10;99.90
4763;DHT22;2395;50.738;7.122;2022-08-01T02:44:38;21.10;99.90
4763;DHT22;2395;50.738;7.122;2022-08-01T02:47:12;21.10;99.90
4763;DHT22;2395;50.738;7.122;2022-08-01T02:49:55;21.10;99.90
4763;DHT22;2395;50.738;7.122;2022-08-01T02:52:30;21.10;99.90
4763;DHT22;2395;50.738;7.122;2022-08-01T02:55:05;21.10;99.90
4763;DHT22;2395;50.738;7.122;2022-08-01T02:57:41;21.00;99.90
4763;DHT22;2395;50.738;7.122;2022-08-01T03:00:21;21.00;99.90
4763;DHT22;2395;50.738;7.122;2022-08-01T03:03:19;21.00;99.90
4763;DHT22;2395;50.738;7.122;2022-08-01T03:05:58;21.00;99.90
4763;DHT22;2395;50.738;7.122;2022-08-01T03:08:33;21.00;99.90
4763;DHT22;2395;50.738;7.122;2022-08-01T03:11:06;21.00;99.90
4763;DHT22;2395;50.738;7.122;2022-08-01T03:13:39;21.00;99.90
4763;DHT22;2395;50.738;7.122;2022-08-01T03:16:09;21.00;99.90
4763;DHT22;2395;50.738;7.122;2022-08-01T03:19:03;20.90;99.90
4763;DHT22;2395;50.738;7.122;2022-08-01T03:21:36;20.90;99.90
4763;DHT22;2395;50.738;7.122;2022-08-01T03:24:12;20.80;99.90
4763;DHT22;2395;50.738;7.122;2022-08-01T03:26:46;20.90;99.90
4763;DHT22;2395;50.738;7.122;2022-08-01T03:29:21;20.80;99.90
4763;DHT22;2395;50.738;7.122;2022-08-01T03:31:57;20.70;99.90
4763;DHT22;2395;50.738;7.122;2022-08-01T03:34:39;20.80;99.90
4763;DHT22;2395;50.738;7.122;2022-08-01T03:37:29;20.80;99.90
4763;DHT22;2395;50.738;7.122;2022-08-01T03:40:20;20.80;99.90
4763;DHT22;2395;50.738;7.122;2022-08-01T03:43:05;20.90;99.90
4763;DHT22;2395;50.738;7.122;2022-08-01T03:45:57;20.80;99.90
4763;DHT22;2395;50.738;7.122;2022-08-01T03:48:43;20.90;99.90
4763;DHT22;2395;50.738;7.122;2022-08-01T03:51:16;20.90;99.90
4763;DHT22;2395;50.738;7.122;2022-08-01T03:53:51;20.90;99.90
4763;DHT22;2395;50.738;7.122;2022-08-01T03:56:26;21.00;99.90
4763;DHT22;2395;50.738;7.122;2022-08-01T03:59:08;21.00;99.90
4763;DHT22;2395;50.738;7.122;2022-08-01T04:01:52;20.90;99.90
4763;DHT22;2395;50.738;7.122;2022-08-01T04:04:22;20.80;99.90
4763;DHT22;2395;50.738;7.122;2022-08-01T04:06:59;20.80;99.90
4763;DHT22;2395;50.738;7.122;2022-08-01T04:09:35;20.80;99.90
4763;DHT22;2395;50.738;7.122;2022-08-01T04:12:07;20.70;99.90
4763;DHT22;2395;50.738;7.122;2022-08-01T04:14:55;20.70;99.90
4763;DHT22;2395;50.738;7.122;2022-08-01T04:17:26;20.80;99.90
4763;DHT22;2395;50.738;7.122;2022-08-01T04:20:04;20.80;99.90
4763;DHT22;2395;50.738;7.122;2022-08-01T04:22:33;20.80;99.90
4763;DHT22;2395;50.738;7.122;2022-08-01T04:25:07;20.80;99.90
4763;DHT22;2395;50.738;7.122;2022-08-01T04:27:57;20.80;99.90
4763;DHT22;2395;50.738;7.122;2022-08-01T04:30:36;20.80;99.90
4763;DHT22;2395;50.738;7.122;2022-08-01T04:33:10;20.90;99.90
4763;DHT22;2395;50.738;7.122;2022-08-01T04:35:49;20.90;99.90
4763;DHT22;2395;50.738;7.122;2022-08-01T04:38:25;20.90;99.90
4763;DHT22;2395;50.738;7.122;2022-08-01T04:40:59;20.90;99.90
4763;DHT22;2395;50.738;7.122;2022-08-01T04:43:35;20.90;99.90
4763;DHT22;2395;50.738;7.122;2022-08-01T04:46:07;20.90;99.90
4763;DHT22;2395;50.738;7.122;2022-08-01T04:48:48;20.90;99.90
4763;DHT22;2395;50.738;7.122;2022-08-01T04:51:24;20.90;99.90
4763;DHT22;2395;50.738;7.122;2022-08-01T04:54:04;20.90;99.90
4763;DHT22;2395;50.738;7.122;2022-08-01T04:56:43;20.90;99.90
4763;DHT22;2395;50.738;7.122;2022-08-01T04:59:18;20.90;99.90
4763;DHT22;2395;50.738;7.122;2022-08-01T05:02:05;20.90;99.90
4763;DHT22;2395;50.738;7.122;2022-08-01T05:04:47;20.90;99.90
4763;DHT22;2395;50.738;7.122;2022-08-01T05:07:20;20.80;99.90
4763;DHT22;2395;50.738;7.122;2022-08-01T05:09:59;20.90;99.90
4763;DHT22;2395;50.738;7.122;2022-08-01T05:12:28;21.00;99.90
4763;DHT22;2395;50.738;7.122;2022-08-01T05:15:08;21.10;99.90
4763;DHT22;2395;50.738;7.122;2022-08-01T05:17:46;21.10;99.90
4763;DHT22;2395;50.738;7.122;2022-08-01T05:20:24;21.00;99.90
4763;DHT22;2395;50.738;7.122;2022-08-01T05:22:58;21.10;99.90
4763;DHT22;2395;50.738;7.122;2022-08-01T05:25:37;21.20;99.90
4763;DHT22;2395;50.738;7.122;2022-08-01T05:28:13;21.10;99.90
4763;DHT22;2395;50.738;7.122;2022-08-01T05:31:01;21.20;99.90
4763;DHT22;2395;50.738;7.122;2022-08-01T05:34:32;21.30;99.90
4763;DHT22;2395;50.738;7.122;2022-08-01T05:37:14;21.10;99.90
4763;DHT22;2395;50.738;7.122;2022-08-01T05:39:55;21.10;99.90
4763;DHT22;2395;50.738;7.122;2022-08-01T05:42:27;21.00;99.90
4763;DHT22;2395;50.738;7.122;2022-08-01T05:45:39;21.10;99.90
4763;DHT22;2395;50.738;7.122;2022-08-01T05:48:47;21.00;99.90
4763;DHT22;2395;50.738;7.122;2022-08-01T05:51:25;21.00;99.90
4763;DHT22;2395;50.738;7.122;2022-08-01T05:54:42;21.00;99.90
4763;DHT22;2395;50.738;7.122;2022-08-01T05:57:39;21.00;99.90
4763;DHT22;2395;50.738;7.122;2022-08-01T06:00:22;21.00;99.90
4763;DHT22;2395;50.738;7.122;2022-08-01T06:03:01;21.00;99.90
4763;DHT22;2395;50.738;7.122;2022-08-01T06:05:30;21.00;99.90
4763;DHT22;2395;50.738;7.122;2022-08-01T06:07:58;21.00;99.90
4763;DHT22;2395;50.738;7.122;2022-08-01T06:10:29;20.90;99.90
4763;DHT22;2395;50.738;7.122;2022-08-01T06:12:59;21.00;99.90
4763;DHT22;2395;50.738;7.122;2022-08-01T06:15:35;21.00;99.90
4763;DHT22;2395;50.738;7.122;2022-08-01T06:18:12;21.00;99.90
4763;DHT22;2395;50.738;7.122;2022-08-01T06:20:44;21.10;99.90
4763;DHT22;2395;50.738;7.122;2022-08-01T06:23:14;21.20;99.90
4763;DHT22;2395;50.738;7.122;2022-08-01T06:25:58;21.10;99.90
4763;DHT22;2395;50.738;7.122;2022-08-01T06:28:32;21.10;99.90
4763;DHT22;2395;50.738;7.122;2022-08-01T06:31:06;21.10;99.90
4763;DHT22;2395;50.738;7.122;2022-08-01T06:33:38;21.10;99.90
4763;DHT22;2395;50.738;7.122;2022-08-01T06:36:08;21.10;99.90
4763;DHT22;2395;50.738;7.122;2022-08-01T06:38:38;21.20;99.90
4763;DHT22;2395;50.738;7.122;2022-08-01T06:41:11;21.20;99.90
4763;DHT22;2395;50.738;7.122;2022-08-01T06:43:43;21.30;99.90
4763;DHT22;2395;50.738;7.122;2022-08-01T06:46:22;21.30;99.90
4763;DHT22;2395;50.738;7.122;2022-08-01T06:48:54;21.30;99.90
4763;DHT22;2395;50.738;7.122;2022-08-01T06:51:25;21.40;99.90
4763;DHT22;2395;50.738;7.122;2022-08-01T06:53:54;21.50;99.90
4763;DHT22;2395;50.738;7.122;2022-08-01T06:56:25;21.50;99.90
4763;DHT22;2395;50.738;7.122;2022-08-01T06:59:08;21.60;99.90
4763;DHT22;2395;50.738;7.122;2022-08-01T07:01:39;21.60;99.90
4763;DHT22;2395;50.738;7.122;2022-08-01T07:04:14;21.70;99.90
4763;DHT22;2395;50.738;7.122;2022-08-01T07:06:54;21.90;99.90
4763;DHT22;2395;50.738;7.122;2022-08-01T07:09:23;21.90;99.90
4763;DHT22;2395;50.738;7.122;2022-08-01T07:11:57;21.90;99.90
4763;DHT22;2395;50.738;7.122;2022-08-01T07:14:39;22.00;99.90
4763;DHT22;2395;50.738;7.122;2022-08-01T07:17:07;22.00;99.90
4763;DHT22;2395;50.738;7.122;2022-08-01T07:19:43;21.80;99.90
4763;DHT22;2395;50.738;7.122;2022-08-01T07:22:48;21.60;99.90
4763;DHT22;2395;50.738;7.122;2022-08-01T07:25:25;21.60;99.90
4763;DHT22;2395;50.738;7.122;2022-08-01T07:28:23;21.50;99.90
4763;DHT22;2395;50.738;7.122;2022-08-01T07:30:56;21.60;99.90
4763;DHT22;2395;50.738;7.122;2022-08-01T07:36:40;22.00;99.90
4763;DHT22;2395;50.738;7.122;2022-08-01T07:39:32;22.10;99.90
4763;DHT22;2395;50.738;7.122;2022-08-01T07:42:07;22.30;99.90
4763;DHT22;2395;50.738;7.122;2022-08-01T07:44:35;22.40;99.90
4763;DHT22;2395;50.738;7.122;2022-08-01T07:47:22;22.50;99.90
4763;DHT22;2395;50.738;7.122;2022-08-01T07:49:59;22.70;99.90
4763;DHT22;2395;50.738;7.122;2022-08-01T07:53:00;22.90;99.90
4763;DHT22;2395;50.738;7.122;2022-08-01T07:55:36;22.80;99.90
4763;DHT22;2395;50.738;7.122;2022-08-01T07:58:07;22.90;99.90
4763;DHT22;2395;50.738;7.122;2022-08-01T08:00:37;23.00;99.90
4763;DHT22;2395;50.738;7.122;2022-08-01T08:03:07;22.90;99.90
4763;DHT22;2395;50.738;7.122;2022-08-01T08:05:38;22.80;99.90
4763;DHT22;2395;50.738;7.122;2022-08-01T08:08:14;22.80;99.90
4763;DHT22;2395;50.738;7.122;2022-08-01T08:10:44;22.60;99.90
4763;DHT22;2395;50.738;7.122;2022-08-01T08:13:13;22.60;99.90
4763;DHT22;2395;50.738;7.122;2022-08-01T08:15:44;22.50;99.90
4763;DHT22;2395;50.738;7.122;2022-08-01T08:18:19;22.50;99.90
4763;DHT22;2395;50.738;7.122;2022-08-01T08:21:00;22.60;99.90
4763;DHT22;2395;50.738;7.122;2022-08-01T08:23:38;22.70;99.90
4763;DHT22;2395;50.738;7.122;2022-08-01T08:26:28;22.90;99.90
4763;DHT22;2395;50.738;7.122;2022-08-01T08:29:09;23.10;99.90
4763;DHT22;2395;50.738;7.122;2022-08-01T08:31:46;23.20;99.90
4763;DHT22;2395;50.738;7.122;2022-08-01T08:34:20;23.10;99.90
4763;DHT22;2395;50.738;7.122;2022-08-01T08:37:07;23.20;99.90
4763;DHT22;2395;50.738;7.122;2022-08-01T08:39:50;23.40;99.90
4763;DHT22;2395;50.738;7.122;2022-08-01T08:42:30;23.50;99.90
4763;DHT22;2395;50.738;7.122;2022-08-01T08:45:06;23.60;99.90
4763;DHT22;2395;50.738;7.122;2022-08-01T08:47:54;23.40;99.90
4763;DHT22;2395;50.738;7.122;2022-08-01T08:50:32;23.30;99.90
4763;DHT22;2395;50.738;7.122;2022-08-01T08:53:09;23.40;99.90
4763;DHT22;2395;50.738;7.122;2022-08-01T08:56:09;23.40;99.90
4763;DHT22;2395;50.738;7.122;2022-08-01T08:59:06;23.40;99.90
4763;DHT22;2395;50.738;7.122;2022-08-01T09:02:05;23.40;99.90
4763;DHT22;2395;50.738;7.122;2022-08-01T09:04:48;23.40;99.90
4763;DHT22;2395;50.738;7.122;2022-08-01T09:07:21;23.40;99.90
4763;DHT22;2395;50.738;7.122;2022-08-01T09:09:52;23.70;99.90
4763;DHT22;2395;50.738;7.122;2022-08-01T09:12:23;23.90;99.90
4763;DHT22;2395;50.738;7.122;2022-08-01T09:14:52;24.00;99.90
4763;DHT22;2395;50.738;7.122;2022-08-01T09:17:39;24.20;99.90
4763;DHT22;2395;50.738;7.122;2022-08-01T09:20:08;24.20;99.90
4763;DHT22;2395;50.738;7.122;2022-08-01T09:22:52;24.30;99.90
4763;DHT22;2395;50.738;7.122;2022-08-01T09:25:27;24.20;99.90
4763;DHT22;2395;50.738;7.122;2022-08-01T09:28:32;24.00;99.90
4763;DHT22;2395;50.738;7.122;2022-08-01T09:31:11;24.00;99.90
4763;DHT22;2395;50.738;7.122;2022-08-01T09:34:04;24.10;99.90
4763;DHT22;2395;50.738;7.122;2022-08-01T09:36:47;24.30;99.90
4763;DHT22;2395;50.738;7.122;2022-08-01T09:39:22;24.60;99.90
4763;DHT22;2395;50.738;7.122;2022-08-01T09:41:55;24.70;99.90
4763;DHT22;2395;50.738;7.122;2022-08-01T09:44:40;24.60;99.90
4763;DHT22;2395;50.738;7.122;2022-08-01T09:47:09;25.00;99.90
4763;DHT22;2395;50.738;7.122;2022-08-01T09:49:53;25.10;99.90
4763;DHT22;2395;50.738;7.122;2022-08-01T09:52:36;25.10;99.90
4763;DHT22;2395;50.738;7.122;2022-08-01T09:55:07;25.40;99.90
4763;DHT22;2395;50.738;7.122;2022-08-01T09:57:54;25.30;99.90
4763;DHT22;2395;50.738;7.122;2022-08-01T10:00:35;25.20;99.90
4763;DHT22;2395;50.738;7.122;2022-08-01T10:03:23;25.00;99.90
4763;DHT22;2395;50.738;7.122;2022-08-01T10:05:56;24.90;99.90
4763;DHT22;2395;50.738;7.122;2022-08-01T10:08:28;24.90;99.90
4763;DHT22;2395;50.738;7.122;2022-08-01T10:11:25;25.00;99.90
4763;DHT22;2395;50.738;7.122;2022-08-01T10:14:06;25.70;99.90
4763;DHT22;2395;50.738;7.122;2022-08-01T10:16:50;25.70;99.90
4763;DHT22;2395;50.738;7.122;2022-08-01T10:19:25;25.40;99.90
4763;DHT22;2395;50.738;7.122;2022-08-01T10:22:00;25.40;99.90
4763;DHT22;2395;50.738;7.122;2022-08-01T10:24:38;25.40;99.90
4763;DHT22;2395;50.738;7.122;2022-08-01T10:27:35;25.30;99.90
4763;DHT22;2395;50.738;7.122;2022-08-01T10:30:23;25.80;99.90
4763;DHT22;2395;50.738;7.122;2022-08-01T10:32:59;26.30;99.90
4763;DHT22;2395;50.738;7.122;2022-08-01T10:35:34;26.70;99.90
4763;DHT22;2395;50.738;7.122;2022-08-01T10:38:01;26.60;99.90
4763;DHT22;2395;50.738;7.122;2022-08-01T10:40:30;26.30;99.90
4763;DHT22;2395;50.738;7.122;2022-08-01T10:42:58;26.10;99.90
4763;DHT22;2395;50.738;7.122;2022-08-01T10:45:26;25.90;99.90
4763;DHT22;2395;50.738;7.122;2022-08-01T10:48:02;25.80;99.90
4763;DHT22;2395;50.738;7.122;2022-08-01T10:50:38;25.60;99.90
4763;DHT22;2395;50.738;7.122;2022-08-01T10:53:13;25.30;99.90
4763;DHT22;2395;50.738;7.122;2022-08-01T10:55:47;25.10;99.90
4763;DHT22;2395;50.738;7.122;2022-08-01T10:58:21;25.10;99.90
4763;DHT22;2395;50.738;7.122;2022-08-01T11:01:19;25.00;99.90
4763;DHT22;2395;50.738;7.122;2022-08-01T11:04:06;25.10;99.90
4763;DHT22;2395;50.738;7.122;2022-08-01T11:06:46;25.30;99.90
4763;DHT22;2395;50.738;7.122;2022-08-01T11:09:26;25.70;99.90
4763;DHT22;2395;50.738;7.122;2022-08-01T11:12:00;26.00;99.90
4763;DHT22;2395;50.738;7.122;2022-08-01T11:14:31;26.50;99.90
4763;DHT22;2395;50.738;7.122;2022-08-01T11:17:30;26.70;99.90
4763;DHT22;2395;50.738;7.122;2022-08-01T11:20:10;27.00;99.90
4763;DHT22;2395;50.738;7.122;2022-08-01T11:26:11;27.40;99.90
4763;DHT22;2395;50.738;7.122;2022-08-01T11:28:44;27.40;99.90
4763;DHT22;2395;50.738;7.122;2022-08-01T11:31:33;27.10;99.90
4763;DHT22;2395;50.738;7.122;2022-08-01T11:34:01;26.70;99.90
4763;DHT22;2395;50.738;7.122;2022-08-01T11:36:29;26.40;99.90
4763;DHT22;2395;50.738;7.122;2022-08-01T11:39:16;26.30;99.90
4763;DHT22;2395;50.738;7.122;2022-08-01T11:41:46;26.20;99.90
4763;DHT22;2395;50.738;7.122;2022-08-01T11:44:19;26.50;99.90
4763;DHT22;2395;50.738;7.122;2022-08-01T11:46:59;26.70;99.90
4763;DHT22;2395;50.738;7.122;2022-08-01T11:49:47;26.70;99.90
4763;DHT22;2395;50.738;7.122;2022-08-01T11:52:26;26.40;99.90
4763;DHT22;2395;50.738;7.122;2022-08-01T11:54:56;25.90;99.90
4763;DHT22;2395;50.738;7.122;2022-08-01T11:57:25;25.60;99.90
4763;DHT22;2395;50.738;7.122;2022-08-01T11:59:57;25.10;99.90
4763;DHT22;2395;50.738;7.122;2022-08-01T12:02:26;25.00;99.90
4763;DHT22;2395;50.738;7.122;2022-08-01T12:04:56;25.00;99.90
4763;DHT22;2395;50.738;7.122;2022-08-01T12:07:27;24.90;99.90
4763;DHT22;2395;50.738;7.122;2022-08-01T12:10:00;24.80;99.90
4763;DHT22;2395;50.738;7.122;2022-08-01T12:12:29;25.00;99.90
4763;DHT22;2395;50.738;7.122;2022-08-01T12:15:01;25.20;99.90
4763;DHT22;2395;50.738;7.122;2022-08-01T12:17:32;25.30;99.90
4763;DHT22;2395;50.738;7.122;2022-08-01T12:20:02;25.60;99.90
4763;DHT22;2395;50.738;7.122;2022-08-01T12:22:32;25.90;99.90
4763;DHT22;2395;50.738;7.122;2022-08-01T12:25:06;26.20;99.90
4763;DHT22;2395;50.738;7.122;2022-08-01T12:27:35;26.50;99.90
4763;DHT22;2395;50.738;7.122;2022-08-01T12:30:06;26.50;99.90
4763;DHT22;2395;50.738;7.122;2022-08-01T12:32:36;26.50;99.90
4763;DHT22;2395;50.738;7.122;2022-08-01T12:35:06;26.60;99.90
4763;DHT22;2395;50.738;7.122;2022-08-01T12:37:37;26.80;99.90
4763;DHT22;2395;50.738;7.122;2022-08-01T12:40:13;26.80;99.90
4763;DHT22;2395;50.738;7.122;2022-08-01T12:42:43;26.80;99.90
4763;DHT22;2395;50.738;7.122;2022-08-01T12:45:14;26.40;99.90
4763;DHT22;2395;50.738;7.122;2022-08-01T12:47:47;26.20;99.90
4763;DHT22;2395;50.738;7.122;2022-08-01T12:50:18;26.20;99.90
4763;DHT22;2395;50.738;7.122;2022-08-01T12:52:48;26.20;99.90
4763;DHT22;2395;50.738;7.122;2022-08-01T12:55:17;26.20;99.90
4763;DHT22;2395;50.738;7.122;2022-08-01T12:57:48;26.40;99.90
4763;DHT22;2395;50.738;7.122;2022-08-01T13:00:22;26.30;99.90
4763;DHT22;2395;50.738;7.122;2022-08-01T13:03:06;26.40;99.90
4763;DHT22;2395;50.738;7.122;2022-08-01T13:05:41;26.20;99.90
4763;DHT22;2395;50.738;7.122;2022-08-01T13:08:12;26.30;99.90
4763;DHT22;2395;50.738;7.122;2022-08-01T13:10:40;26.40;99.90
4763;DHT22;2395;50.738;7.122;2022-08-01T13:13:10;26.50;99.90
4763;DHT22;2395;50.738;7.122;2022-08-01T13:15:40;26.90;99.90
4763;DHT22;2395;50.738;7.122;2022-08-01T13:18:25;27.40;99.90
4763;DHT22;2395;50.738;7.122;2022-08-01T13:21:18;27.70;99.90
4763;DHT22;2395;50.738;7.122;2022-08-01T13:24:03;27.90;99.90
4763;DHT22;2395;50.738;7.122;2022-08-01T13:26:43;28.10;99.90
4763;DHT22;2395;50.738;7.122;2022-08-01T13:29:13;28.00;99.90
4763;DHT22;2395;50.738;7.122;2022-08-01T13:31:42;27.80;99.90
4763;DHT22;2395;50.738;7.122;2022-08-01T13:34:11;27.70;99.90
4763;DHT22;2395;50.738;7.122;2022-08-01T13:36:39;27.70;99.90
4763;DHT22;2395;50.738;7.122;2022-08-01T13:39:08;27.30;99.90
4763;DHT22;2395;50.738;7.122;2022-08-01T13:41:53;27.20;99.90
4763;DHT22;2395;50.738;7.122;2022-08-01T13:44:20;27.30;99.90
4763;DHT22;2395;50.738;7.122;2022-08-01T13:46:47;27.10;99.90
4763;DHT22;2395;50.738;7.122;2022-08-01T13:49:14;26.90;99.90
4763;DHT22;2395;50.738;7.122;2022-08-01T13:51:41;26.90;99.90
4763;DHT22;2395;50.738;7.122;2022-08-01T13:54:10;26.80;99.90
4763;DHT22;2395;50.738;7.122;2022-08-01T13:56:37;26.90;99.90
4763;DHT22;2395;50.738;7.122;2022-08-01T13:59:04;27.10;99.90
4763;DHT22;2395;50.738;7.122;2022-08-01T14:01:31;27.20;99.90
4763;DHT22;2395;50.738;7.122;2022-08-01T14:03:58;27.10;99.90
4763;DHT22;2395;50.738;7.122;2022-08-01T14:06:26;27.10;99.90
4763;DHT22;2395;50.738;7.122;2022-08-01T14:08:53;26.80;99.90
4763;DHT22;2395;50.738;7.122;2022-08-01T14:11:21;26.70;99.90
4763;DHT22;2395;50.738;7.122;2022-08-01T14:13:49;26.70;99.90
4763;DHT22;2395;50.738;7.122;2022-08-01T14:16:16;26.50;99.90
4763;DHT22;2395;50.738;7.122;2022-08-01T14:18:44;26.50;99.90
4763;DHT22;2395;50.738;7.122;2022-08-01T14:21:11;26.40;99.90
4763;DHT22;2395;50.738;7.122;2022-08-01T14:23:38;26.40;99.90
4763;DHT22;2395;50.738;7.122;2022-08-01T14:26:05;26.40;99.90
4763;DHT22;2395;50.738;7.122;2022-08-01T14:28:33;26.40;99.90
4763;DHT22;2395;50.738;7.122;2022-08-01T14:31:00;26.60;99.90
4763;DHT22;2395;50.738;7.122;2022-08-01T14:33:28;26.70;99.90
4763;DHT22;2395;50.738;7.122;2022-08-01T14:35:56;26.70;99.90
4763;DHT22;2395;50.738;7.122;2022-08-01T14:38:23;26.60;99.90
4763;DHT22;2395;50.738;7.122;2022-08-01T14:40:50;26.40;99.90
4763;DHT22;2395;50.738;7.122;2022-08-01T14:43:18;26.40;99.90
4763;DHT22;2395;50.738;7.122;2022-08-01T14:45:48;26.50;99.90
4763;DHT22;2395;50.738;7.122;2022-08-01T14:48:17;26.60;99.90
4763;DHT22;2395;50.738;7.122;2022-08-01T14:50:44;26.60;99.90
4763;DHT22;2395;50.738;7.122;2022-08-01T14:53:12;26.70;99.90
4763;DHT22;2395;50.738;7.122;2022-08-01T14:55:39;26.70;99.90
4763;DHT22;2395;50.738;7.122;2022-08-01T14:58:05;26.60;99.90
4763;DHT22;2395;50.738;7.122;2022-08-01T15:00:33;26.70;99.90
4763;DHT22;2395;50.738;7.122;2022-08-01T15:03:01;26.90;99.90
4763;DHT22;2395;50.738;7.122;2022-08-01T15:05:28;27.10;99.90
4763;DHT22;2395;50.738;7.122;2022-08-01T15:07:56;27.60;99.90
4763;DHT22;2395;50.738;7.122;2022-08-01T15:10:23;27.80;99.90
4763;DHT22;2395;50.738;7.122;2022-08-01T15:12:50;27.70;99.90
4763;DHT22;2395;50.738;7.122;2022-08-01T15:15:17;27.50;99.90
4763;DHT22;2395;50.738;7.122;2022-08-01T15:17:44;27.60;99.90
4763;DHT22;2395;50.738;7.122;2022-08-01T15:20:13;27.50;99.90
4763;DHT22;2395;50.738;7.122;2022-08-01T15:22:40;27.20;99.90
4763;DHT22;2395;50.738;7.122;2022-08-01T15:25:08;27.50;99.90
4763;DHT22;2395;50.738;7.122;2022-08-01T15:27:36;27.60;99.90
4763;DHT22;2395;50.738;7.122;2022-08-01T15:30:04;27.70;99.90
4763;DHT22;2395;50.738;7.122;2022-08-01T15:32:31;27.80;99.90
4763;DHT22;2395;50.738;7.122;2022-08-01T15:34:58;28.10;99.90
4763;DHT22;2395;50.738;7.122;2022-08-01T15:37:26;27.90;99.90
4763;DHT22;2395;50.738;7.122;2022-08-01T15:39:53;27.50;99.90
4763;DHT22;2395;50.738;7.122;2022-08-01T15:42:20;27.30;99.90
4763;DHT22;2395;50.738;7.122;2022-08-01T15:44:47;27.20;99.90
4763;DHT22;2395;50.738;7.122;2022-08-01T15:47:14;27.10;99.90
4763;DHT22;2395;50.738;7.122;2022-08-01T15:49:41;27.00;99.90
4763;DHT22;2395;50.738;7.122;2022-08-01T15:52:09;26.90;99.90
4763;DHT22;2395;50.738;7.122;2022-08-01T15:54:37;26.70;99.90
4763;DHT22;2395;50.738;7.122;2022-08-01T15:57:06;26.70;99.90
4763;DHT22;2395;50.738;7.122;2022-08-01T15:59:33;26.50;99.90
4763;DHT22;2395;50.738;7.122;2022-08-01T16:02:00;26.60;99.90
4763;DHT22;2395;50.738;7.122;2022-08-01T16:04:27;26.60;99.90
4763;DHT22;2395;50.738;7.122;2022-08-01T16:06:54;26.50;99.90
4763;DHT22;2395;50.738;7.122;2022-08-01T16:09:21;26.40;99.90
4763;DHT22;2395;50.738;7.122;2022-08-01T16:11:49;26.60;99.90
4763;DHT22;2395;50.738;7.122;2022-08-01T16:14:16;26.50;99.90
4763;DHT22;2395;50.738;7.122;2022-08-01T16:16:45;26.50;99.90
4763;DHT22;2395;50.738;7.122;2022-08-01T16:19:13;26.60;99.90
4763;DHT22;2395;50.738;7.122;2022-08-01T16:21:41;26.50;99.90
4763;DHT22;2395;50.738;7.122;2022-08-01T16:24:08;26.50;99.90
4763;DHT22;2395;50.738;7.122;2022-08-01T16:26:35;26.60;99.90
4763;DHT22;2395;50.738;7.122;2022-08-01T16:29:03;26.60;99.90
4763;DHT22;2395;50.738;7.122;2022-08-01T16:31:30;26.70;99.90
4763;DHT22;2395;50.738;7.122;2022-08-01T16:33:57;26.70;99.90
4763;DHT22;2395;50.738;7.122;2022-08-01T16:36:24;26.90;99.90
4763;DHT22;2395;50.738;7.122;2022-08-01T16:38:51;27.20;99.90
4763;DHT22;2395;50.738;7.122;2022-08-01T16:41:18;27.20;99.90
4763;DHT22;2395;50.738;7.122;2022-08-01T16:43:46;27.20;99.90
4763;DHT22;2395;50.738;7.122;2022-08-01T16:46:15;27.10;99.90
4763;DHT22;2395;50.738;7.122;2022-08-01T16:48:42;26.90;99.90
4763;DHT22;2395;50.738;7.122;2022-08-01T16:51:09;26.80;99.90
4763;DHT22;2395;50.738;7.122;2022-08-01T16:53:36;26.70;99.90
4763;DHT22;2395;50.738;7.122;2022-08-01T16:56:03;26.60;99.90
4763;DHT22;2395;50.738;7.122;2022-08-01T16:58:30;26.70;99.90
4763;DHT22;2395;50.738;7.122;2022-08-01T17:00:57;26.80;99.90
4763;DHT22;2395;50.738;7.122;2022-08-01T17:03:26;26.80;99.90
4763;DHT22;2395;50.738;7.122;2022-08-01T17:05:53;26.80;99.90